Airfield :
LOGIN :

Register | Disclaimer

   EN    FR    IT 

 










Legend :    VFR   Marginal VFR   IFR   Intensive IFR   Very Intensive IFR
Visi :
Ceiling :
>= 8 km
>= 3000ft
5 to 8 km
1000 to 3000 ft
1500m to 5 km
500 to 1000 ft
800 to 1500m
200 to 500 ft
< 800m
< 200 ft
Symbols :   Thunderstorms  Fog  Heavy snow  Heavy precipitations  Wind > 20 kt
SIGMETs :     Misc.  Thunderstorms  Icing  Turbulence  Mountain Waves  Volcanic Ashes






- Airport Elevation : 3463 ft
- IATA code : ASR


LTAU - Erkilet AB

CURRENT METAR :
  • 301950Z 13001KT 9999 FEW040 SCT100 04/02 Q1014 NOSIG RMK RWY07 06002KT

EXPIRED METARs :
  • 301920Z 00000KT 9999 SCT040 BKN100 05/02 Q1014 NOSIG
  • 301850Z 00000KT 9999 SCT040 BKN100 06/03 Q1014 NOSIG
  • 301820Z 00000KT 9999 SCT040 BKN100 06/03 Q1014 NOSIG RMK RWY07 01002KT
  • 301750Z 09001KT 9999 SCT040 BKN100 06/03 Q1014 NOSIG RMK RWY07 08003KT
  • 301720Z 08001KT 9999 SCT040 BKN100 07/02 Q1014 NOSIG RMK RWY07 07003KT

TAF TAF LTAU
Valid from the 30 at 18:00 until the 31 at 18:00 UTC


301640Z 3018/3118 VRB02KT 9999 SCT040 BKN100
PROB40 3104/3108 05012KT
TEMPO 3112/3116 -SHRA FEW027CB BKN035



MET'MAP, your aeronautical weather chart ! - Copyright ORBIFLY December 2007 - Disclaimer

ORBIFLY MET'MAP TEAM :

Programming & Development : Alexandra Zaïnal
Concept & original design : Baudouin d'Aumeries
Assistance for programming : Marc-Olivier Méhu
Technical & hardware support : Manuel Goepfert

Contact : metmap@orbifly.com




SOURCES & CREDITS :

   NOAA